Time;durP1;ratioP1;P1;durP2;ratioP2;P2;SDS_P1;SDS_P2;PMS_P1;PMS_P2;Temp;Humidity;BMP_temperature;BMP_pressure;BME280_temperature;BME280_humidity;BME280_pressure;Samples;Min_cycle;Max_cycle;Signal;HPM_P1;HPM_P2
2022/03/03 07:02:46;;;;;;;23.45;7.65;;;;;;;;;;4915677;29;20048;-82
2022/03/03 07:05:16;;;;;;;29.15;5.95;;;;;;;;;;4915922;29;20051;-82
2022/03/03 07:07:46;;;;;;;27.73;4.68;;;;;;;;;;4916451;29;20052;-83
2022/03/03 07:10:14;;;;;;;24.38;4.32;;;;;;;;;;4927842;29;20052;-82
2022/03/03 07:12:41;;;;;;;25.17;2.97;;;;;;;;;;4917759;29;20132;-83
2022/03/03 07:15:08;;;;;;;26.48;3.75;;;;;;;;;;4915594;29;20059;-83
2022/03/03 07:17:45;;;;;;;25.48;3.47;;;;;;;;;;4916111;29;20092;-83
2022/03/03 07:20:29;;;;;;;33.75;3.70;;;;;;;;;;4915617;29;20552;-82
2022/03/03 07:23:03;;;;;;;21.20;3.03;;;;;;;;;;4916495;29;20048;-82
2022/03/03 07:25:43;;;;;;;19.45;3.53;;;;;;;;;;4916797;29;20516;-83
2022/03/03 07:28:11;;;;;;;40.03;5.63;;;;;;;;;;4914869;29;20079;-82
2022/03/03 07:30:41;;;;;;;27.98;3.67;;;;;;;;;;4916157;29;20072;-82
2022/03/03 07:33:18;;;;;;;27.55;3.03;;;;;;;;;;4913752;29;20052;-81
2022/03/03 07:35:49;;;;;;;18.45;3.13;;;;;;;;;;4913993;29;20052;-83
2022/03/03 07:38:23;;;;;;;40.42;4.68;;;;;;;;;;4913651;29;20048;-82
2022/03/03 07:40:52;;;;;;;25.02;2.97;;;;;;;;;;4913430;29;20068;-83
2022/03/03 07:43:19;;;;;;;21.88;4.13;;;;;;;;;;4914344;29;20052;-82
2022/03/03 07:45:46;;;;;;;21.77;4.30;;;;;;;;;;4898008;29;20056;-83
2022/03/03 07:48:13;;;;;;;31.30;4.95;;;;;;;;;;4913449;29;20082;-83
2022/03/03 07:50:41;;;;;;;28.92;5.13;;;;;;;;;;4914606;29;20054;-83
2022/03/03 07:53:11;;;;;;;36.50;5.47;;;;;;;;;;4913628;29;20044;-83
2022/03/03 07:55:47;;;;;;;30.38;8.43;;;;;;;;;;4897207;29;20108;-83
2022/03/03 07:58:26;;;;;;;30.52;7.07;;;;;;;;;;4897840;29;20450;-82
2022/03/03 08:00:58;;;;;;;29.55;5.55;;;;;;;;;;4911272;29;20060;-82
2022/03/03 08:03:25;;;;;;;22.08;3.88;;;;;;;;;;4914193;29;20501;-82
2022/03/03 08:05:58;;;;;;;30.35;4.00;;;;;;;;;;4913718;29;20151;-83
2022/03/03 08:08:26;;;;;;;32.58;5.45;;;;;;;;;;4915524;29;20087;-83
2022/03/03 08:10:57;;;;;;;29.73;3.78;;;;;;;;;;4923741;29;20127;-82
2022/03/03 08:13:26;;;;;;;27.05;4.00;;;;;;;;;;4913553;29;20056;-83
2022/03/03 08:15:53;;;;;;;;;;;;;;;;;;4914210;29;20477;-82
2022/03/03 08:18:20;;;;;;;33.03;4.78;;;;;;;;;;4913996;29;20264;-83
2022/03/03 08:20:47;;;;;;;31.85;3.65;;;;;;;;;;4913785;29;20469;-82
2022/03/03 08:23:14;;;;;;;38.15;4.35;;;;;;;;;;4913224;29;20437;-82
2022/03/03 08:25:41;;;;;;;33.88;4.93;;;;;;;;;;4913684;29;20056;-82
2022/03/03 08:28:09;;;;;;;39.58;4.38;;;;;;;;;;4913235;29;20544;-84
2022/03/03 08:30:35;;;;;;;46.93;5.87;;;;;;;;;;4914071;29;20452;-84
2022/03/03 08:33:06;;;;;;;39.05;4.82;;;;;;;;;;4913502;29;20075;-83
2022/03/03 08:35:40;;;;;;;34.90;4.30;;;;;;;;;;4913120;29;20538;-83
2022/03/03 08:38:17;;;;;;;42.55;4.80;;;;;;;;;;4912652;29;20052;-84
2022/03/03 08:40:44;;;;;;;49.83;5.63;;;;;;;;;;4913985;29;20478;-83
2022/03/03 08:43:13;;;;;;;40.65;4.43;;;;;;;;;;4912970;29;20105;-82
2022/03/03 08:45:40;;;;;;;;;;;;;;;;;;4914224;29;20135;-83
2022/03/03 08:48:10;;;;;;;42.47;4.72;;;;;;;;;;4913054;29;20363;-83
2022/03/03 08:50:39;;;;;;;48.03;6.13;;;;;;;;;;4913154;29;20054;-83
2022/03/03 08:53:06;;;;;;;;;;;;;;;;;;4913076;29;20048;-82
2022/03/03 08:55:34;;;;;;;55.60;5.85;;;;;;;;;;4912207;29;19979;-84
2022/03/03 08:58:01;;;;;;;65.20;7.20;;;;;;;;;;4911799;29;20040;-84
2022/03/03 09:00:28;;;;;;;65.85;6.95;;;;;;;;;;4911100;29;20051;-85
2022/03/03 09:02:57;;;;;;;64.60;6.93;;;;;;;;;;4908616;29;20064;-84
2022/03/03 09:05:24;;;;;;;76.93;6.60;;;;;;;;;;4891555;29;20071;-84
2022/03/03 09:07:50;;;;;;;59.20;6.40;;;;;;;;;;4916399;29;20124;-86
2022/03/03 09:10:17;;;;;;;76.13;7.50;;;;;;;;;;4903190;29;20080;-84
2022/03/03 09:12:44;;;;;;;78.97;6.72;;;;;;;;;;4909551;29;20075;-85
2022/03/03 09:15:11;;;;;;;79.88;7.50;;;;;;;;;;4908472;29;20620;-84
2022/03/03 09:17:39;;;;;;;79.88;7.20;;;;;;;;;;4908628;29;20048;-85
2022/03/03 09:20:09;;;;;;;72.28;7.85;;;;;;;;;;4913522;29;20205;-85
2022/03/03 09:22:35;;;;;;;75.45;6.95;;;;;;;;;;4920484;29;20949;-86
2022/03/03 09:25:03;;;;;;;63.55;7.07;;;;;;;;;;4917638;29;20058;-85
2022/03/03 09:27:31;;;;;;;76.13;8.70;;;;;;;;;;4891841;29;20048;-85
2022/03/03 09:29:57;;;;;;;74.25;7.72;;;;;;;;;;4903057;29;20079;-83
2022/03/03 09:32:24;;;;;;;64.35;7.47;;;;;;;;;;4918687;29;20395;-85
2022/03/03 09:34:52;;;;;;;66.60;7.30;;;;;;;;;;4917670;29;20124;-84
2022/03/03 09:37:19;;;;;;;82.85;8.45;;;;;;;;;;4908223;29;20123;-84
2022/03/03 09:39:47;;;;;;;77.47;9.77;;;;;;;;;;4907848;29;20111;-83
2022/03/03 09:42:14;;;;;;;89.10;8.73;;;;;;;;;;4907805;29;20048;-83
2022/03/03 09:44:41;;;;;;;78.53;8.00;;;;;;;;;;4922409;29;20060;-84
2022/03/03 09:47:11;;;;;;;84.20;8.20;;;;;;;;;;4907502;29;20124;-83
2022/03/03 09:49:39;;;;;;;72.25;8.32;;;;;;;;;;4908193;29;20083;-84
2022/03/03 09:52:16;;;;;;;78.82;8.00;;;;;;;;;;4904022;29;20048;-83
2022/03/03 09:54:46;;;;;;;69.68;7.63;;;;;;;;;;4917833;29;20512;-83
2022/03/03 09:57:15;;;;;;;73.72;8.32;;;;;;;;;;4906964;29;20060;-83
2022/03/03 09:59:43;;;;;;;70.90;8.35;;;;;;;;;;4909576;29;20059;-83
2022/03/03 10:02:11;;;;;;;66.90;7.68;;;;;;;;;;4908208;29;20107;-82
2022/03/03 10:04:38;;;;;;;63.92;6.45;;;;;;;;;;4913450;29;20059;-84
2022/03/03 10:07:07;;;;;;;78.10;9.57;;;;;;;;;;4912613;29;20099;-83
2022/03/03 10:10:18;;;;;;;65.15;7.97;;;;;;;;;;4912995;29;20048;-84
2022/03/03 10:12:42;;;;;;;77.72;7.85;;;;;;;;;;4908284;29;20457;-83
2022/03/03 10:15:13;;;;;;;78.90;8.40;;;;;;;;;;4913466;29;20056;-83
2022/03/03 10:17:40;;;;;;;75.75;8.05;;;;;;;;;;4918421;29;20075;-84
2022/03/03 10:20:07;;;;;;;59.80;7.55;;;;;;;;;;4903620;29;20063;-84
2022/03/03 10:22:47;;;;;;;69.80;7.60;;;;;;;;;;4912815;29;20058;-84
2022/03/03 10:25:26;;;;;;;81.90;8.63;;;;;;;;;;4912958;29;20060;-84
2022/03/03 10:27:52;;;;;;;82.22;8.18;;;;;;;;;;4913145;29;20051;-84
2022/03/03 10:30:21;;;;;;;73.13;8.57;;;;;;;;;;4910609;29;20147;-83
2022/03/03 10:32:48;;;;;;;70.90;8.38;;;;;;;;;;4902898;29;20103;-83
2022/03/03 10:35:18;;;;;;;65.90;8.18;;;;;;;;;;4899387;29;20044;-82
2022/03/03 10:37:46;;;;;;;60.63;6.85;;;;;;;;;;4913207;29;20394;-82
2022/03/03 10:40:15;;;;;;;57.65;6.10;;;;;;;;;;4925427;29;20159;-82
2022/03/03 10:42:44;;;;;;;;;;;;;;;;;;4914943;29;20139;-82
2022/03/03 10:45:17;;;;;;;43.83;5.68;;;;;;;;;;4912956;29;20462;-81
2022/03/03 10:47:58;;;;;;;38.17;4.88;;;;;;;;;;4910751;29;20064;-80
2022/03/03 10:50:25;;;;;;;47.80;5.15;;;;;;;;;;4900953;29;20471;-81
2022/03/03 10:52:52;;;;;;;29.50;4.28;;;;;;;;;;4913342;29;20052;-82
2022/03/03 10:55:20;;;;;;;45.35;5.63;;;;;;;;;;4913200;29;20675;-82
2022/03/03 10:57:58;;;;;;;48.42;5.22;;;;;;;;;;4918294;29;20146;-83
2022/03/03 11:00:27;;;;;;;40.55;6.03;;;;;;;;;;4894050;29;20062;-81
2022/03/03 11:03:01;;;;;;;46.67;6.10;;;;;;;;;;4915735;29;20052;-82
2022/03/03 11:05:30;;;;;;;35.58;4.95;;;;;;;;;;4896172;29;20131;-82
2022/03/03 11:07:58;;;;;;;35.97;4.78;;;;;;;;;;4912945;29;20064;-82
2022/03/03 11:10:29;;;;;;;45.03;5.60;;;;;;;;;;4910059;29;20047;-83
2022/03/03 11:12:56;;;;;;;49.20;4.95;;;;;;;;;;4913042;29;20495;-82
2022/03/03 11:15:25;;;;;;;45.13;6.20;;;;;;;;;;4909353;29;20547;-82
2022/03/03 11:17:52;;;;;;;;;;;;;;;;;;4918678;29;20111;-81
2022/03/03 11:20:20;;;;;;;44.13;5.82;;;;;;;;;;4909083;29;19923;-85
2022/03/03 11:22:48;;;;;;;50.13;5.97;;;;;;;;;;4923059;29;20576;-84
2022/03/03 11:25:18;;;;;;;47.08;5.45;;;;;;;;;;4910126;29;20063;-84
2022/03/03 11:27:45;;;;;;;46.97;5.93;;;;;;;;;;4911459;29;20597;-83
2022/03/03 11:30:31;;;;;;;47.58;5.22;;;;;;;;;;4923273;29;20073;-83
2022/03/03 11:33:27;;;;;;;51.70;7.10;;;;;;;;;;4912913;29;20056;-83
2022/03/03 11:35:58;;;;;;;63.15;6.53;;;;;;;;;;4903942;29;20054;-83
2022/03/03 11:38:45;;;;;;;61.78;6.32;;;;;;;;;;4907148;29;20051;-82
2022/03/03 11:41:13;;;;;;;41.80;5.50;;;;;;;;;;4893000;29;20051;-82
2022/03/03 11:44:08;;;;;;;53.40;6.35;;;;;;;;;;4921751;29;20059;-83
2022/03/03 11:46:46;;;;;;;90.72;16.08;;;;;;;;;;4908179;29;20048;-83
2022/03/03 11:49:18;;;;;;;66.20;15.00;;;;;;;;;;4920525;29;20099;-83
2022/03/03 11:51:48;;;;;;;110.78;32.97;;;;;;;;;;4893762;29;20068;-83
2022/03/03 11:54:28;;;;;;;52.92;8.50;;;;;;;;;;4886628;29;20088;-83
2022/03/03 11:57:03;;;;;;;46.55;5.75;;;;;;;;;;4895460;29;20192;-82
2022/03/03 11:59:34;;;;;;;44.00;6.15;;;;;;;;;;4899771;29;20040;-83
2022/03/03 12:02:02;;;;;;;40.67;9.00;;;;;;;;;;4900146;29;20402;-83
2022/03/03 12:04:29;;;;;;;46.22;8.20;;;;;;;;;;4901310;29;20048;-82
2022/03/03 12:06:58;;;;;;;34.22;5.80;;;;;;;;;;4906646;29;20107;-82
2022/03/03 12:09:30;;;;;;;63.53;18.67;;;;;;;;;;4888482;29;20382;-81
2022/03/03 12:12:19;;;;;;;39.80;6.20;;;;;;;;;;4908732;29;20437;-81
2022/03/03 12:15:00;;;;;;;36.08;5.10;;;;;;;;;;4909045;29;20059;-82
2022/03/03 12:17:38;;;;;;;39.92;5.00;;;;;;;;;;4908143;29;20051;-83
2022/03/03 12:20:23;;;;;;;39.47;4.47;;;;;;;;;;4902364;29;20050;-82
2022/03/03 12:23:10;;;;;;;42.78;9.57;;;;;;;;;;4907807;29;20055;-82
2022/03/03 12:25:55;;;;;;;40.67;4.50;;;;;;;;;;4907339;29;20194;-82
2022/03/03 12:28:26;;;;;;;35.88;4.57;;;;;;;;;;4902604;29;20516;-82
2022/03/03 12:30:54;;;;;;;34.20;4.97;;;;;;;;;;4909375;29;20581;-82
2022/03/03 12:33:29;;;;;;;31.20;3.80;;;;;;;;;;4907336;29;20052;-82
2022/03/03 12:36:06;;;;;;;29.25;5.03;;;;;;;;;;4907570;29;20059;-83
2022/03/03 12:38:34;;;;;;;35.75;4.68;;;;;;;;;;4905430;29;20141;-82
2022/03/03 12:41:03;;;;;;;21.38;3.28;;;;;;;;;;4907914;29;20139;-82
2022/03/03 12:43:41;;;;;;;14.50;1.70;;;;;;;;;;4908257;29;20123;-81
2022/03/03 12:46:08;;;;;;;16.58;2.67;;;;;;;;;;4911779;29;20485;-82
2022/03/03 12:48:34;;;;;;;12.80;2.75;;;;;;;;;;4909083;29;20067;-83
2022/03/03 12:51:02;;;;;;;15.00;3.20;;;;;;;;;;4891791;29;21079;-82
2022/03/03 12:53:38;;;;;;;15.55;2.88;;;;;;;;;;4908151;29;20616;-81
2022/03/03 12:56:05;;;;;;;22.15;2.75;;;;;;;;;;4907662;29;20122;-82
2022/03/03 12:58:35;;;;;;;23.75;4.07;;;;;;;;;;4908872;29;20052;-82
2022/03/03 13:01:02;;;;;;;31.83;5.80;;;;;;;;;;4906218;29;20171;-82
2022/03/03 13:03:33;;;;;;;39.05;6.63;;;;;;;;;;4890377;29;20048;-83
2022/03/03 13:06:03;;;;;;;26.23;6.07;;;;;;;;;;4895249;29;20075;-82
2022/03/03 13:08:35;;;;;;;23.08;3.55;;;;;;;;;;4894089;29;20051;-82
2022/03/03 13:11:14;;;;;;;34.05;5.35;;;;;;;;;;4882291;29;20056;-82
2022/03/03 13:13:57;;;;;;;31.85;5.45;;;;;;;;;;4884812;29;20399;-82
2022/03/03 13:16:26;;;;;;;29.38;3.70;;;;;;;;;;4889705;29;20112;-83
2022/03/03 13:18:55;;;;;;;24.35;3.05;;;;;;;;;;4890305;29;20060;-83
2022/03/03 13:21:26;;;;;;;29.33;3.73;;;;;;;;;;4889999;29;20053;-83
2022/03/03 13:24:04;;;;;;;20.45;2.50;;;;;;;;;;4889445;29;20798;-82
2022/03/03 13:26:49;;;;;;;18.23;4.13;;;;;;;;;;4871719;29;20629;-81
2022/03/03 13:29:18;;;;;;;20.27;3.33;;;;;;;;;;4898306;29;20045;-81
2022/03/03 13:31:48;;;;;;;29.50;4.53;;;;;;;;;;4889693;29;20052;-81
2022/03/03 13:34:23;;;;;;;24.65;3.75;;;;;;;;;;4889615;29;20116;-82
2022/03/03 13:36:53;;;;;;;22.42;3.53;;;;;;;;;;4889717;29;20078;-82
2022/03/03 13:39:34;;;;;;;25.45;2.78;;;;;;;;;;4889956;29;20510;-81
2022/03/03 13:42:06;;;;;;;17.27;2.85;;;;;;;;;;4889211;29;20076;-81
2022/03/03 13:44:49;;;;;;;28.63;3.38;;;;;;;;;;4889843;29;20131;-82
2022/03/03 13:47:28;;;;;;;22.90;3.10;;;;;;;;;;4889018;29;20371;-81
2022/03/03 13:49:55;;;;;;;16.10;3.05;;;;;;;;;;4889047;29;20083;-82
2022/03/03 13:52:32;;;;;;;21.70;3.85;;;;;;;;;;4893090;29;20052;-84
2022/03/03 13:55:07;;;;;;;21.88;2.95;;;;;;;;;;4905945;29;20457;-84
2022/03/03 13:57:44;;;;;;;18.02;2.83;;;;;;;;;;4889636;29;20580;-85
2022/03/03 14:00:33;;;;;;;23.48;4.40;;;;;;;;;;4888206;29;20104;-85
2022/03/03 14:03:15;;;;;;;24.73;2.80;;;;;;;;;;4905943;29;20071;-84
2022/03/03 14:05:50;;;;;;;25.25;3.92;;;;;;;;;;4917258;29;20044;-85
2022/03/03 14:08:29;;;;;;;28.65;4.05;;;;;;;;;;4913501;29;20052;-85
2022/03/03 14:11:04;;;;;;;22.15;2.30;;;;;;;;;;4901895;29;20570;-84
2022/03/03 14:13:49;;;;;;;21.95;3.08;;;;;;;;;;4907534;29;20063;-85
2022/03/03 14:16:20;;;;;;;20.02;2.83;;;;;;;;;;4890858;29;20048;-84
2022/03/03 14:18:48;;;;;;;21.50;3.08;;;;;;;;;;4908519;29;20060;-84
2022/03/03 14:21:15;;;;;;;;;;;;;;;;;;4918091;29;20528;-84
2022/03/03 14:23:42;;;;;;;24.15;2.88;;;;;;;;;;4894265;29;19931;-84
2022/03/03 14:26:10;;;;;;;22.83;3.38;;;;;;;;;;4906784;29;20044;-84
2022/03/03 14:28:38;;;;;;;25.03;3.20;;;;;;;;;;4907660;29;20115;-84
2022/03/03 14:31:05;;;;;;;20.90;2.72;;;;;;;;;;4890642;29;20529;-83
2022/03/03 14:33:32;;;;;;;14.82;2.55;;;;;;;;;;4924649;29;20052;-84
2022/03/03 14:35:58;;;;;;;22.35;3.05;;;;;;;;;;4909398;29;20048;-84
2022/03/03 14:38:26;;;;;;;19.25;2.65;;;;;;;;;;4911742;29;20049;-85
2022/03/03 14:40:55;;;;;;;20.75;2.53;;;;;;;;;;4890684;29;20059;-85
2022/03/03 14:43:28;;;;;;;16.63;2.28;;;;;;;;;;4907326;29;20512;-84
2022/03/03 14:45:55;;;;;;;16.52;2.35;;;;;;;;;;4900138;29;20114;-85
2022/03/03 14:48:21;;;;;;;11.95;1.67;;;;;;;;;;4907871;29;20079;-84
2022/03/03 14:50:49;;;;;;;13.10;1.55;;;;;;;;;;4894409;29;20052;-85
2022/03/03 14:53:16;;;;;;;12.47;1.87;;;;;;;;;;4910891;29;20119;-84
2022/03/03 14:55:43;;;;;;;12.52;1.95;;;;;;;;;;4893883;29;20299;-85
2022/03/03 14:58:09;;;;;;;11.20;1.75;;;;;;;;;;4907810;29;20266;-86
2022/03/03 15:00:36;;;;;;;11.55;1.80;;;;;;;;;;4895065;29;20052;-84
2022/03/03 15:03:04;;;;;;;15.43;2.35;;;;;;;;;;4910598;29;20584;-84
2022/03/03 15:05:31;;;;;;;13.68;1.75;;;;;;;;;;4910345;29;20050;-83
2022/03/03 15:08:00;;;;;;;12.38;1.98;;;;;;;;;;4910222;29;20047;-83
2022/03/03 15:10:28;;;;;;;10.32;1.85;;;;;;;;;;4920969;29;20044;-84
2022/03/03 15:12:55;;;;;;;10.63;1.67;;;;;;;;;;4910910;29;20083;-84
2022/03/03 15:15:21;;;;;;;13.35;1.80;;;;;;;;;;4910486;29;20429;-83
2022/03/03 15:17:48;;;;;;;8.77;1.38;;;;;;;;;;4910622;29;20076;-83
2022/03/03 15:20:15;;;;;;;15.13;1.48;;;;;;;;;;4910145;29;20048;-84
2022/03/03 15:22:44;;;;;;;11.73;2.00;;;;;;;;;;4910602;29;20085;-83
2022/03/03 15:25:10;;;;;;;11.73;1.75;;;;;;;;;;4902122;29;20406;-84
2022/03/03 15:27:37;;;;;;;13.15;2.40;;;;;;;;;;4898874;29;20234;-83
2022/03/03 15:30:06;;;;;;;9.73;1.58;;;;;;;;;;4903639;29;20477;-82
2022/03/03 15:32:33;;;;;;;15.98;1.80;;;;;;;;;;4909700;29;20072;-82
2022/03/03 15:37:46;;;;;;;9.98;1.38;;;;;;;;;;4909876;29;20058;-82
2022/03/03 15:40:12;;;;;;;18.13;1.80;;;;;;;;;;4885118;29;20051;-83
2022/03/03 15:42:40;;;;;;;9.10;1.50;;;;;;;;;;4896903;29;20102;-82
2022/03/03 15:45:07;;;;;;;9.55;2.28;;;;;;;;;;4908290;29;20079;-82
2022/03/03 15:47:34;;;;;;;10.75;1.83;;;;;;;;;;4906639;29;20429;-84
2022/03/03 15:50:01;;;;;;;10.60;1.77;;;;;;;;;;4899300;29;20572;-82
2022/03/03 15:52:28;;;;;;;15.43;1.65;;;;;;;;;;4924239;29;20048;-84
2022/03/03 15:54:55;;;;;;;12.45;1.98;;;;;;;;;;4893552;29;20060;-83
2022/03/03 15:57:21;;;;;;;13.45;2.00;;;;;;;;;;4894966;29;20123;-82
2022/03/03 15:59:48;;;;;;;15.88;1.88;;;;;;;;;;4910791;29;20398;-83
2022/03/03 16:02:15;;;;;;;14.43;2.20;;;;;;;;;;4912584;29;20060;-82
2022/03/03 16:04:42;;;;;;;13.07;1.85;;;;;;;;;;4913519;29;20047;-79
2022/03/03 16:07:09;;;;;;;12.13;1.73;;;;;;;;;;4917897;29;20438;-78
2022/03/03 16:09:38;;;;;;;11.13;1.58;;;;;;;;;;4900007;29;20079;-80
2022/03/03 16:12:06;;;;;;;17.00;2.90;;;;;;;;;;4906585;29;20071;-80
2022/03/03 16:14:33;;;;;;;11.83;1.97;;;;;;;;;;4905150;29;20044;-80
2022/03/03 16:17:08;;;;;;;17.40;3.20;;;;;;;;;;4908885;29;20379;-79
2022/03/03 16:19:35;;;;;;;13.38;3.25;;;;;;;;;;4904453;29;20048;-77
2022/03/03 16:22:02;;;;;;;9.13;2.10;;;;;;;;;;4911265;29;20052;-81
2022/03/03 16:24:29;;;;;;;13.48;2.10;;;;;;;;;;4928587;29;20134;-79
2022/03/03 16:26:58;;;;;;;18.65;2.60;;;;;;;;;;4911508;29;20056;-81
2022/03/03 16:29:26;;;;;;;16.98;2.80;;;;;;;;;;4908573;29;20115;-81
2022/03/03 16:32:06;;;;;;;17.35;3.22;;;;;;;;;;4909847;29;20531;-80
2022/03/03 16:34:39;;;;;;;16.92;2.97;;;;;;;;;;4908891;29;20048;-81
2022/03/03 16:37:08;;;;;;;15.27;3.25;;;;;;;;;;4913446;29;20056;-79
2022/03/03 16:39:35;;;;;;;14.13;2.22;;;;;;;;;;4914932;29;20068;-79
2022/03/03 16:42:04;;;;;;;13.25;2.05;;;;;;;;;;4910092;29;20047;-79
2022/03/03 16:44:30;;;;;;;;;;;;;;;;;;4909549;29;20509;-79
2022/03/03 16:46:58;;;;;;;14.68;2.00;;;;;;;;;;4910167;29;20077;-79
2022/03/03 16:49:25;;;;;;;17.77;3.03;;;;;;;;;;4909404;29;20087;-79
2022/03/03 16:51:52;;;;;;;14.30;1.60;;;;;;;;;;4929842;29;20083;-81
2022/03/03 16:54:19;;;;;;;12.73;1.95;;;;;;;;;;4920441;29;20082;-80
2022/03/03 16:56:46;;;;;;;13.23;1.77;;;;;;;;;;4906497;29;20573;-82
2022/03/03 16:59:13;;;;;;;13.48;2.38;;;;;;;;;;4916036;29;20092;-81
2022/03/03 17:01:41;;;;;;;11.60;1.85;;;;;;;;;;4898731;29;20537;-79
2022/03/03 17:04:09;;;;;;;19.90;2.03;;;;;;;;;;4889612;29;20048;-79
2022/03/03 17:06:37;;;;;;;12.15;2.10;;;;;;;;;;4891383;29;20076;-79
2022/03/03 17:09:08;;;;;;;17.38;3.15;;;;;;;;;;4899459;29;20048;-81
2022/03/03 17:11:35;;;;;;;17.38;3.72;;;;;;;;;;4868623;29;20056;-79
2022/03/03 17:14:05;;;;;;;14.60;2.08;;;;;;;;;;4882806;29;20049;-80
2022/03/03 17:16:33;;;;;;;14.23;2.80;;;;;;;;;;4884095;29;20513;-80
2022/03/03 17:19:02;;;;;;;11.13;2.28;;;;;;;;;;4889421;29;20053;-81
2022/03/03 17:21:29;;;;;;;15.45;2.42;;;;;;;;;;4879346;29;20068;-81
2022/03/03 17:23:55;;;;;;;10.70;2.15;;;;;;;;;;4890390;29;20121;-81
2022/03/03 17:26:23;;;;;;;14.13;2.10;;;;;;;;;;4881206;29;20079;-82
2022/03/03 17:28:50;;;;;;;14.38;2.55;;;;;;;;;;4889337;29;20202;-81
2022/03/03 17:31:17;;;;;;;15.85;2.13;;;;;;;;;;4882258;29;20120;-82
2022/03/03 17:33:45;;;;;;;14.52;2.00;;;;;;;;;;4876715;29;20051;-82
2022/03/03 17:36:12;;;;;;;15.40;2.38;;;;;;;;;;4889075;29;20167;-82
2022/03/03 17:38:39;;;;;;;16.50;2.15;;;;;;;;;;4872358;29;20064;-84
2022/03/03 17:41:07;;;;;;;13.05;1.70;;;;;;;;;;4896555;29;20049;-82
2022/03/03 17:43:34;;;;;;;13.50;1.77;;;;;;;;;;4900519;29;20075;-82
2022/03/03 17:46:02;;;;;;;13.02;2.03;;;;;;;;;;4880883;29;20143;-82
2022/03/03 17:48:29;;;;;;;13.40;2.80;;;;;;;;;;4901534;29;20058;-82
2022/03/03 17:50:55;;;;;;;12.50;2.88;;;;;;;;;;4900732;29;20044;-80
2022/03/03 17:53:22;;;;;;;14.02;2.08;;;;;;;;;;4890936;29;20080;-83
2022/03/03 17:55:49;;;;;;;17.13;2.60;;;;;;;;;;4890353;29;20052;-80
2022/03/03 17:58:16;;;;;;;12.35;2.30;;;;;;;;;;4889660;29;20520;-81
2022/03/03 18:00:42;;;;;;;19.90;2.60;;;;;;;;;;4891266;29;20506;-83
2022/03/03 18:03:10;;;;;;;22.00;2.75;;;;;;;;;;4889613;29;20144;-82
2022/03/03 18:05:37;;;;;;;13.55;1.52;;;;;;;;;;4889760;29;20052;-83
2022/03/03 18:08:05;;;;;;;15.65;2.20;;;;;;;;;;4889117;29;20079;-82
2022/03/03 18:10:31;;;;;;;15.93;2.08;;;;;;;;;;4890954;29;20073;-83
2022/03/03 18:12:58;;;;;;;15.75;2.15;;;;;;;;;;4899324;29;20092;-82
2022/03/03 18:15:25;;;;;;;12.40;1.70;;;;;;;;;;4890359;29;20061;-82
2022/03/03 18:17:51;;;;;;;17.15;2.55;;;;;;;;;;4889625;29;20076;-82
2022/03/03 18:20:18;;;;;;;21.85;3.22;;;;;;;;;;4888656;29;20072;-81
2022/03/03 18:22:45;;;;;;;20.30;2.80;;;;;;;;;;4889889;29;20055;-82
2022/03/03 18:25:12;;;;;;;13.10;2.40;;;;;;;;;;4895966;29;20118;-82
2022/03/03 18:27:39;;;;;;;19.88;2.58;;;;;;;;;;4893815;29;20159;-82
2022/03/03 18:30:08;;;;;;;18.00;3.13;;;;;;;;;;4875997;29;20128;-81
2022/03/03 18:32:35;;;;;;;27.95;2.30;;;;;;;;;;4896499;29;20047;-81
2022/03/03 18:35:02;;;;;;;24.33;3.95;;;;;;;;;;4893362;29;20041;-82
2022/03/03 18:37:28;;;;;;;21.05;2.80;;;;;;;;;;4898212;29;20044;-81
2022/03/03 18:39:55;;;;;;;24.83;3.53;;;;;;;;;;4903986;29;20060;-81
2022/03/03 18:42:22;;;;;;;20.58;2.72;;;;;;;;;;4898194;29;20118;-81
2022/03/03 18:44:49;;;;;;;25.98;3.20;;;;;;;;;;4899667;29;20048;-82
2022/03/03 18:47:16;;;;;;;23.80;2.78;;;;;;;;;;4872798;29;20055;-82
2022/03/03 18:49:43;;;;;;;22.40;3.65;;;;;;;;;;4886656;29;20509;-81
2022/03/03 18:52:10;;;;;;;29.30;2.97;;;;;;;;;;4895615;29;20112;-82
2022/03/03 18:54:40;;;;;;;17.67;2.65;;;;;;;;;;4896135;29;20076;-83
2022/03/03 18:57:08;;;;;;;17.73;2.60;;;;;;;;;;4893553;29;20060;-82
2022/03/03 18:59:35;;;;;;;34.58;4.18;;;;;;;;;;4900390;29;20051;-80
2022/03/03 19:02:03;;;;;;;29.85;3.75;;;;;;;;;;4905099;29;20588;-81
2022/03/03 19:04:30;;;;;;;20.02;3.45;;;;;;;;;;4894245;29;20059;-81
2022/03/03 19:06:57;;;;;;;23.80;3.78;;;;;;;;;;4904641;29;20104;-80
2022/03/03 19:09:24;;;;;;;22.25;3.65;;;;;;;;;;4900539;29;20056;-80
2022/03/03 19:11:50;;;;;;;28.48;3.58;;;;;;;;;;4879082;29;20049;-80
2022/03/03 19:14:20;;;;;;;37.97;4.72;;;;;;;;;;4894177;29;20524;-80
2022/03/03 19:16:46;;;;;;;27.95;3.88;;;;;;;;;;4892470;29;20044;-81
2022/03/03 19:19:14;;;;;;;28.10;3.50;;;;;;;;;;4903356;29;20056;-80
2022/03/03 19:21:41;;;;;;;33.53;4.25;;;;;;;;;;4901140;29;20079;-79
2022/03/03 19:24:08;;;;;;;32.25;3.45;;;;;;;;;;4892691;29;20470;-80
2022/03/03 19:26:34;;;;;;;28.45;5.07;;;;;;;;;;4896071;29;20080;-80
2022/03/03 19:29:01;;;;;;;29.13;3.95;;;;;;;;;;4901435;29;20083;-81
2022/03/03 19:31:28;;;;;;;23.58;3.13;;;;;;;;;;4878528;29;20052;-83
2022/03/03 19:34:06;;;;;;;38.13;4.63;;;;;;;;;;4899846;29;20048;-82
2022/03/03 19:36:33;;;;;;;30.30;4.03;;;;;;;;;;4892012;29;20419;-81
2022/03/03 19:39:00;;;;;;;34.65;4.28;;;;;;;;;;4902523;29;20056;-81
2022/03/03 19:41:27;;;;;;;30.73;5.07;;;;;;;;;;4895103;29;20056;-81
2022/03/03 19:43:53;;;;;;;21.38;3.20;;;;;;;;;;4901989;29;20052;-83
2022/03/03 19:46:20;;;;;;;27.98;4.13;;;;;;;;;;4903216;29;20872;-83
2022/03/03 19:48:48;;;;;;;28.70;3.67;;;;;;;;;;4907772;29;20521;-81
2022/03/03 19:51:14;;;;;;;26.15;3.67;;;;;;;;;;4894212;29;20534;-82
2022/03/03 19:53:41;;;;;;;22.60;4.28;;;;;;;;;;4871866;29;20054;-83
2022/03/03 19:56:07;;;;;;;27.63;3.53;;;;;;;;;;4891716;29;20045;-83
2022/03/03 19:58:34;;;;;;;42.67;4.40;;;;;;;;;;4892243;29;20457;-81
2022/03/03 20:01:02;;;;;;;25.60;3.35;;;;;;;;;;4893227;29;20056;-82
2022/03/03 20:03:29;;;;;;;26.73;3.97;;;;;;;;;;4892274;29;20049;-81
2022/03/03 20:05:57;;;;;;;25.52;3.78;;;;;;;;;;4895045;29;20489;-82
2022/03/03 20:08:24;;;;;;;32.95;4.35;;;;;;;;;;4890502;29;20059;-83
2022/03/03 20:10:56;;;;;;;25.35;3.45;;;;;;;;;;4892137;29;20056;-83
2022/03/03 20:13:28;;;;;;;25.75;4.35;;;;;;;;;;4877110;29;20098;-81
2022/03/03 20:15:56;;;;;;;22.95;3.67;;;;;;;;;;4892352;29;20159;-83
2022/03/03 20:18:23;;;;;;;31.38;3.65;;;;;;;;;;4890878;29;20057;-83
2022/03/03 20:21:09;;;;;;;27.60;3.92;;;;;;;;;;4889904;29;20052;-81
2022/03/03 20:23:35;;;;;;;28.83;3.90;;;;;;;;;;4893123;29;20172;-82
2022/03/03 20:26:03;;;;;;;28.27;4.00;;;;;;;;;;4889897;29;20131;-81
2022/03/03 20:28:31;;;;;;;20.98;3.70;;;;;;;;;;4890293;29;20052;-81
2022/03/03 20:30:59;;;;;;;36.63;4.03;;;;;;;;;;4893435;29;20318;-81
2022/03/03 20:33:26;;;;;;;23.35;3.95;;;;;;;;;;4874374;29;20072;-81
2022/03/03 20:35:53;;;;;;;31.10;4.68;;;;;;;;;;4894400;29;20059;-81
2022/03/03 20:38:20;;;;;;;30.80;3.88;;;;;;;;;;4884924;29;20072;-82
2022/03/03 20:40:47;;;;;;;32.75;4.05;;;;;;;;;;4893210;29;20474;-83
2022/03/03 20:43:15;;;;;;;37.08;3.65;;;;;;;;;;4889811;29;20092;-80
2022/03/03 20:45:49;;;;;;;32.95;3.55;;;;;;;;;;4890070;29;20105;-79
2022/03/03 20:48:19;;;;;;;27.58;4.50;;;;;;;;;;4898089;29;20044;-79
2022/03/03 20:50:47;;;;;;;28.27;3.75;;;;;;;;;;4892773;29;20060;-82
2022/03/03 20:53:19;;;;;;;34.33;5.20;;;;;;;;;;4894102;29;20652;-81
2022/03/03 20:55:46;;;;;;;31.58;3.65;;;;;;;;;;4894611;29;20135;-81
2022/03/03 20:58:17;;;;;;;31.73;4.55;;;;;;;;;;4894903;29;20051;-82
2022/03/03 21:00:46;;;;;;;27.63;4.03;;;;;;;;;;4893786;29;20120;-82
2022/03/03 21:03:14;;;;;;;39.28;3.95;;;;;;;;;;4889486;29;20049;-82
2022/03/03 21:05:43;;;;;;;29.10;3.22;;;;;;;;;;4889815;29;20047;-82
2022/03/03 21:08:10;;;;;;;33.28;3.75;;;;;;;;;;4897770;29;20561;-80
2022/03/03 21:10:37;;;;;;;29.52;4.47;;;;;;;;;;4891128;29;20193;-80
2022/03/03 21:13:06;;;;;;;27.30;3.47;;;;;;;;;;4870914;29;20052;-83
2022/03/03 21:15:33;;;;;;;28.13;4.13;;;;;;;;;;4886071;29;20056;-82
2022/03/03 21:18:00;;;;;;;40.25;4.15;;;;;;;;;;4892373;29;20143;-82
2022/03/03 21:20:27;;;;;;;28.33;4.13;;;;;;;;;;4875506;29;20079;-81
2022/03/03 21:22:55;;;;;;;28.35;3.13;;;;;;;;;;4890580;29;20041;-81
2022/03/03 21:25:22;;;;;;;29.60;3.33;;;;;;;;;;4893163;29;20474;-81
2022/03/03 21:27:48;;;;;;;29.35;4.18;;;;;;;;;;4893657;29;20053;-82
2022/03/03 21:30:15;;;;;;;31.80;4.07;;;;;;;;;;4890227;29;20057;-81
2022/03/03 21:32:42;;;;;;;28.15;3.30;;;;;;;;;;4896345;29;20059;-83
2022/03/03 21:35:09;;;;;;;33.47;4.60;;;;;;;;;;4902087;29;20083;-83
2022/03/03 21:37:37;;;;;;;31.83;3.97;;;;;;;;;;4904274;29;20429;-84
2022/03/03 21:40:05;;;;;;;27.60;3.20;;;;;;;;;;4900063;29;20052;-84
2022/03/03 21:42:32;;;;;;;29.25;3.80;;;;;;;;;;4902816;29;20062;-84
2022/03/03 21:44:59;;;;;;;27.00;3.15;;;;;;;;;;4901768;29;20638;-84
2022/03/03 21:47:26;;;;;;;31.73;4.05;;;;;;;;;;4903077;29;20047;-84
2022/03/03 21:49:52;;;;;;;28.20;4.00;;;;;;;;;;4903329;29;20801;-84
2022/03/03 21:52:19;;;;;;;37.33;3.83;;;;;;;;;;4901862;29;20068;-84